Gassoway, Louisiana
Current Conditions -  °F | °C
As of 2:53 PM on Thursday 18 Dec 2014 (Local Time) from KTVR Reporting Station
Overcast Overcast  
Wind Chill: 54°   Ceiling: 5000
Heat Index: 54°   Visibility: 10mi
Dew Point: 44°   Wind: 6mph
Humidity: 69%   Direction: 120°ESE
Pressure: 30.14"   Gusts: NA
Location:  32.8408°N, 91.231°W
Report Text: KTVR 182053Z AUTO 12005KT 10SM FEW042 OVC050 12/07 A3014 RMK AO2 SLP212 T01220067 56015
Loading
Personal Weather Stations






























Interactive Weather Map New forecast layout! Learn more

10-Day Weather Forecast

Advertisements
Track Severe Weather on mobile